Time;durP1;ratioP1;P1;durP2;ratioP2;P2;SDS_P1;SDS_P2;PMS_P1;PMS_P2;Temp;Humidity;BMP_temperature;BMP_pressure;BME280_temperature;BME280_humidity;BME280_pressure;Samples;Min_cycle;Max_cycle;Signal;HPM_P1;HPM_P2
2022/01/13 00:01:43;;;;;;;35.83;25.47;;;0.30;99.90;;;;;;5111161;28;20254;-79
2022/01/13 00:04:12;;;;;;;38.67;26.67;;;0.20;99.90;;;;;;5111378;28;20201;-78
2022/01/13 00:06:40;;;;;;;32.93;24.30;;;0.20;99.90;;;;;;5110941;28;20216;-78
2022/01/13 00:09:07;;;;;;;39.67;25.93;;;0.20;1.00;;;;;;5110913;28;20204;-72
2022/01/13 00:11:36;;;;;;;38.27;25.60;;;0.20;1.00;;;;;;5110763;28;20254;-77
2022/01/13 00:17:24;;;;;;;36.00;23.67;;;0.20;1.00;;;;;;5110457;28;20227;-75
2022/01/13 00:20:11;;;;;;;36.93;25.43;;;0.20;99.90;;;;;;5114799;28;20611;-75
2022/01/13 00:25:22;;;;;;;38.83;25.97;;;0.10;99.90;;;;;;5114905;28;20196;-78
2022/01/13 00:27:55;;;;;;;32.93;23.93;;;0.20;1.00;;;;;;5114748;28;20542;-76
2022/01/13 00:30:24;;;;;;;32.93;23.63;;;0.10;1.00;;;;;;5114952;28;20234;-79
2022/01/13 00:32:51;;;;;;;45.37;26.53;;;0.10;99.90;;;;;;5114691;28;20683;-76
2022/01/13 00:35:18;;;;;;;36.70;23.70;;;0.10;99.90;;;;;;5115102;28;20231;-75
2022/01/13 00:37:45;;;;;;;36.37;26.57;;;0.10;99.90;;;;;;5114297;28;20233;-77
2022/01/13 00:40:13;;;;;;;31.90;24.10;;;0.10;99.90;;;;;;5114987;28;20205;-73
2022/01/13 00:42:40;;;;;;;38.70;26.47;;;0.10;99.90;;;;;;5114371;28;20664;-81
2022/01/13 00:45:14;;;;;;;35.33;23.80;;;0.10;99.90;;;;;;5115412;28;20201;-81
2022/01/13 00:47:41;;;;;;;29.23;23.07;;;0.10;99.90;;;;;;5114700;28;20205;-76
2022/01/13 00:50:09;;;;;;;31.93;23.33;;;0.10;99.90;;;;;;5114577;28;20660;-78
2022/01/13 00:52:36;;;;;;;40.83;26.03;;;0.10;99.90;;;;;;5114159;28;20201;-77
2022/01/13 00:55:08;;;;;;;33.03;24.27;;;0.10;99.90;;;;;;5114610;28;20206;-76
2022/01/13 00:57:35;;;;;;;32.83;25.17;;;0.00;99.90;;;;;;5113877;28;20321;-76
2022/01/13 01:00:02;;;;;;;38.07;26.37;;;0.10;99.90;;;;;;5114694;28;20197;-77
2022/01/13 01:02:31;;;;;;;32.53;24.07;;;0.10;99.90;;;;;;5114548;28;20262;-71
2022/01/13 01:04:57;;;;;;;31.57;24.57;;;0.20;1.00;;;;;;5114760;28;20252;-79
2022/01/13 01:07:24;;;;;;;37.97;25.27;;;0.10;1.00;;;;;;5114856;28;20557;-80
2022/01/13 01:09:51;;;;;;;35.00;25.33;;;0.10;1.00;;;;;;5114119;28;21202;-78
2022/01/13 01:12:19;;;;;;;32.57;24.30;;;0.20;1.00;;;;;;5114779;28;20288;-78
2022/01/13 01:14:53;;;;;;;33.30;26.87;;;0.30;99.90;;;;;;5113955;28;20205;-79
2022/01/13 01:17:20;;;;;;;34.53;24.40;;;0.40;99.90;;;;;;5113819;28;20276;-76
2022/01/13 01:19:51;;;;;;;31.30;24.07;;;0.50;99.90;;;;;;5113589;28;20580;-77
2022/01/13 01:27:57;;;;;;;34.47;25.90;;;0.60;1.00;;;;;;5090555;28;20201;-75
2022/01/13 01:30:30;;;;;;;34.53;24.50;;;0.60;1.00;;;;;;5113206;28;20204;-74
2022/01/13 01:32:57;;;;;;;34.80;26.23;;;0.60;1.00;;;;;;5114335;28;20196;-80
2022/01/13 01:35:27;;;;;;;32.20;24.23;;;0.60;1.00;;;;;;5114163;28;20197;-76
2022/01/13 01:37:55;;;;;;;33.33;23.37;;;0.70;1.00;;;;;;5113887;28;20240;-76
2022/01/13 01:40:23;;;;;;;30.77;22.97;;;0.80;1.00;;;;;;5113781;28;20254;-75
2022/01/13 01:42:50;;;;;;;35.30;23.67;;;0.80;1.00;;;;;;5113151;28;20208;-75
2022/01/13 01:45:19;;;;;;;32.50;23.40;;;0.80;1.00;;;;;;5113771;28;20254;-76
2022/01/13 01:47:50;;;;;;;33.90;26.23;;;0.60;1.00;;;;;;5113357;28;20209;-73
2022/01/13 01:50:20;;;;;;;36.20;26.10;;;0.30;1.00;;;;;;5113247;28;20212;-74
2022/01/13 01:52:50;;;;;;;31.33;24.23;;;0.20;1.00;;;;;;5113205;28;20319;-76
2022/01/13 01:55:18;;;;;;;32.70;24.97;;;0.10;1.00;;;;;;5113376;28;20627;-77
2022/01/13 01:57:47;;;;;;;38.50;25.73;;;0.10;1.00;;;;;;5113634;28;20232;-80
2022/01/13 02:00:17;;;;;;;29.83;23.10;;;0.10;1.00;;;;;;5113487;28;20205;-77
2022/01/13 02:02:45;;;;;;;37.10;23.67;;;0.10;1.00;;;;;;5113187;28;20200;-76
2022/01/13 02:05:12;;;;;;;38.40;24.33;;;0.10;1.00;;;;;;5113112;28;20258;-77
2022/01/13 02:07:40;;;;;;;36.50;26.17;;;0.00;1.00;;;;;;5113023;28;20624;-82
2022/01/13 02:10:09;;;;;;;35.70;25.73;;;0.00;1.00;;;;;;5113326;28;20202;-79
2022/01/13 02:12:41;;;;;;;32.67;23.40;;;-0.10;1.00;;;;;;5113008;28;20201;-79
2022/01/13 02:18:02;;;;;;;34.90;24.53;;;-0.10;1.00;;;;;;5096714;28;20236;-75
2022/01/13 02:20:47;;;;;;;42.30;26.77;;;-0.10;1.00;;;;;;5113087;28;20197;-72
2022/01/13 02:23:14;;;;;;;29.73;23.40;;;-0.10;1.00;;;;;;5112652;28;20568;-76
2022/01/13 02:25:41;;;;;;;31.27;22.40;;;-0.20;1.00;;;;;;5112597;28;20266;-77
2022/01/13 02:28:08;;;;;;;33.27;23.93;;;-0.20;1.00;;;;;;5113274;28;20269;-79
2022/01/13 02:30:35;;;;;;;31.33;23.30;;;-0.10;1.00;;;;;;5112476;28;20261;-75
2022/01/13 02:33:02;;;;;;;32.37;24.07;;;-0.10;1.00;;;;;;5112650;28;20201;-77
2022/01/13 02:35:36;;;;;;;30.47;23.07;;;0.00;1.00;;;;;;5112826;28;20204;-68
2022/01/13 02:38:10;;;;;;;31.43;22.80;;;0.20;1.00;;;;;;5112356;28;20232;-73
2022/01/13 02:40:37;;;;;;;34.63;24.83;;;0.50;1.00;;;;;;5112164;28;20209;-75
2022/01/13 02:43:04;;;;;;;31.07;22.60;;;0.60;1.00;;;;;;5112386;28;20247;-74
2022/01/13 02:45:34;;;;;;;35.40;25.30;;;0.80;1.00;;;;;;5112355;28;20200;-75
2022/01/13 02:48:26;;;;;;;37.00;26.53;;;0.80;1.00;;;;;;5112466;28;20201;-75
2022/01/13 02:50:53;;;;;;;33.83;23.93;;;0.90;1.00;;;;;;5111798;28;20205;-74
2022/01/13 02:53:22;;;;;;;32.80;25.30;;;1.10;1.00;;;;;;5112252;28;20245;-70
2022/01/13 02:55:49;;;;;;;31.83;23.33;;;1.20;1.00;;;;;;5111826;28;21011;-75
2022/01/13 02:58:17;;;;;;;37.13;25.67;;;1.30;1.00;;;;;;5112112;28;20327;-76
2022/01/13 03:00:45;;;;;;;37.97;25.43;;;1.40;1.00;;;;;;5112082;28;20257;-71
2022/01/13 03:03:13;;;;;;;34.37;25.20;;;1.30;1.00;;;;;;5112135;28;20207;-72
2022/01/13 03:05:40;;;;;;;32.70;24.60;;;1.20;1.00;;;;;;5111739;28;20209;-75
2022/01/13 03:08:08;;;;;;;29.37;19.60;;;1.10;1.00;;;;;;5112069;28;20207;-73
2022/01/13 03:10:37;;;;;;;30.17;20.80;;;1.10;1.00;;;;;;5111502;28;20209;-73
2022/01/13 03:13:05;;;;;;;26.13;19.67;;;1.10;1.00;;;;;;5111941;28;20668;-75
2022/01/13 03:15:32;;;;;;;27.07;20.57;;;1.00;1.00;;;;;;5111653;28;20204;-71
2022/01/13 03:17:59;;;;;;;28.87;19.63;;;1.00;1.00;;;;;;5111583;28;20711;-70
2022/01/13 03:20:26;;;;;;;29.43;17.93;;;1.20;1.00;;;;;;5112206;28;20201;-71
2022/01/13 03:22:53;;;;;;;25.70;17.23;;;1.30;1.00;;;;;;5111419;28;20200;-74
2022/01/13 03:25:22;;;;;;;21.20;16.77;;;1.30;1.00;;;;;;5111882;28;20205;-75
2022/01/13 03:27:57;;;;;;;21.83;16.17;;;1.20;1.00;;;;;;5111469;28;20285;-75
2022/01/13 03:30:24;;;;;;;24.40;19.47;;;1.20;1.00;;;;;;5111454;28;20211;-74
2022/01/13 03:32:51;;;;;;;27.63;19.47;;;1.20;1.00;;;;;;5111271;28;20208;-74
2022/01/13 03:35:18;;;;;;;27.23;18.37;;;1.20;1.00;;;;;;5111651;28;20201;-73
2022/01/13 03:37:45;;;;;;;25.57;16.47;;;1.20;1.00;;;;;;5111096;28;20273;-73
2022/01/13 03:40:13;;;;;;;29.50;17.93;;;1.20;1.00;;;;;;5111880;28;20250;-74
2022/01/13 03:42:40;;;;;;;23.07;16.83;;;1.20;1.00;;;;;;5111093;28;20258;-72
2022/01/13 03:45:10;;;;;;;23.07;16.47;;;1.30;1.00;;;;;;5111189;28;20201;-72
2022/01/13 03:47:37;;;;;;;24.13;16.83;;;1.30;1.00;;;;;;5111049;28;20200;-71
2022/01/13 03:50:05;;;;;;;29.07;19.87;;;1.30;1.00;;;;;;5111302;28;20252;-72
2022/01/13 03:53:34;;;;;;;27.20;17.60;;;1.30;1.00;;;;;;5110852;28;20261;-69
2022/01/13 03:56:35;;;;;;;37.00;19.67;;;1.30;1.00;;;;;;5110962;28;20258;-72
2022/01/13 03:59:33;;;;;;;32.30;20.33;;;1.30;1.00;;;;;;5105844;28;20287;-71
2022/01/13 04:02:07;;;;;;;34.10;18.83;;;1.20;1.00;;;;;;5090802;28;20201;-73
2022/01/13 04:04:36;;;;;;;36.87;18.57;;;1.10;1.00;;;;;;5090461;28;20206;-73
2022/01/13 04:07:12;;;;;;;34.20;19.97;;;1.10;1.00;;;;;;5090821;28;20256;-74
2022/01/13 04:10:27;;;;;;;30.40;17.27;;;1.10;1.00;;;;;;5090470;28;20216;-75
2022/01/13 04:12:55;;;;;;;34.60;17.90;;;1.10;1.00;;;;;;5090486;28;20205;-75
2022/01/13 04:15:25;;;;;;;32.70;17.90;;;1.10;1.00;;;;;;5090603;28;20225;-73
2022/01/13 04:17:54;;;;;;;31.97;16.57;;;1.00;1.00;;;;;;5090576;28;20328;-74
2022/01/13 04:20:21;;;;;;;40.90;17.60;;;1.10;1.00;;;;;;5090820;28;20228;-76
2022/01/13 04:22:48;;;;;;;33.77;16.53;;;1.10;1.00;;;;;;5090549;28;20198;-76
2022/01/13 04:25:21;;;;;;;35.27;17.53;;;0.90;1.00;;;;;;5090738;28;20289;-76
2022/01/13 04:27:48;;;;;;;29.97;15.53;;;1.00;1.00;;;;;;5090256;28;20201;-75
2022/01/13 04:33:03;;;;;;;35.30;19.47;;;0.60;39.90;;;;;;5090775;28;20313;-76
2022/01/13 04:35:31;;;;;;;29.07;19.27;;;0.60;99.90;;;;;;5090820;28;20361;-77
2022/01/13 04:37:58;;;;;;;34.97;19.83;;;0.40;99.90;;;;;;5090967;28;20233;-75
2022/01/13 04:40:25;;;;;;;38.47;23.33;;;0.30;99.90;;;;;;5090852;28;20205;-72
2022/01/13 04:42:55;;;;;;;32.50;21.23;;;0.50;1.00;;;;;;5090167;28;20202;-75
2022/01/13 04:45:24;;;;;;;37.47;21.47;;;0.70;1.00;;;;;;5090474;28;20703;-76
2022/01/13 04:47:53;;;;;;;38.33;21.10;;;0.80;1.00;;;;;;5090217;28;20672;-75
2022/01/13 04:50:24;;;;;;;30.87;18.63;;;1.00;99.90;;;;;;5090770;28;20208;-77
2022/01/13 04:52:51;;;;;;;33.60;19.17;;;0.80;99.90;;;;;;5090034;28;20206;-77
2022/01/13 04:55:23;;;;;;;32.20;16.20;;;0.80;1.00;;;;;;5090516;28;20209;-76
2022/01/13 04:57:50;;;;;;;34.13;16.57;;;0.90;1.00;;;;;;5089823;28;20428;-75
2022/01/13 05:00:18;;;;;;;28.80;15.23;;;1.00;1.00;;;;;;5090338;28;20258;-75
2022/01/13 05:02:45;;;;;;;29.13;15.17;;;1.00;1.00;;;;;;5090063;28;20732;-73
2022/01/13 05:05:13;;;;;;;32.83;17.10;;;0.90;1.00;;;;;;5091572;28;20194;-74
2022/01/13 05:07:41;;;;;;;37.40;18.17;;;0.90;1.00;;;;;;5093667;28;20648;-79
2022/01/13 05:10:09;;;;;;;26.97;16.80;;;0.80;1.00;;;;;;5093813;28;20254;-73
2022/01/13 05:12:41;;;;;;;31.33;16.30;;;0.70;1.00;;;;;;5093362;28;20198;-75
2022/01/13 05:15:11;;;;;;;32.53;17.27;;;0.70;1.00;;;;;;5094300;28;20209;-76
2022/01/13 05:20:41;;;;;;;39.80;17.97;;;0.70;1.00;;;;;;5093661;28;20288;-75
2022/01/13 05:23:11;;;;;;;34.13;17.03;;;0.70;1.00;;;;;;5093697;28;20216;-77
2022/01/13 05:25:39;;;;;;;28.90;15.90;;;0.50;1.00;;;;;;5093427;28;20213;-77
2022/01/13 05:28:07;;;;;;;30.20;17.00;;;0.50;1.00;;;;;;5093507;28;20210;-74
2022/01/13 05:30:34;;;;;;;30.50;18.03;;;0.60;1.00;;;;;;5093198;28;20202;-74
2022/01/13 05:33:02;;;;;;;32.97;19.93;;;0.70;1.00;;;;;;5093598;28;20210;-76
2022/01/13 05:35:29;;;;;;;30.70;18.27;;;0.70;17.90;;;;;;5093950;28;20206;-76
2022/01/13 05:37:56;;;;;;;32.60;17.03;;;0.60;1.00;;;;;;5093404;28;20282;-75
2022/01/13 05:40:24;;;;;;;34.20;18.70;;;0.60;1.00;;;;;;5093501;28;20578;-75
2022/01/13 05:42:52;;;;;;;38.93;17.70;;;0.50;77.30;;;;;;5092804;28;20978;-73
2022/01/13 05:45:21;;;;;;;28.60;17.10;;;0.40;99.90;;;;;;5093762;28;20622;-77
2022/01/13 05:47:49;;;;;;;31.40;17.00;;;0.70;99.90;;;;;;5093072;28;20206;-77
2022/01/13 05:50:18;;;;;;;39.37;19.50;;;0.60;1.00;;;;;;5093417;28;20201;-76
2022/01/13 05:52:45;;;;;;;32.97;16.33;;;0.30;1.00;;;;;;5092825;28;20197;-78
2022/01/13 05:55:12;;;;;;;35.23;20.63;;;0.50;99.90;;;;;;5092898;28;20213;-79
2022/01/13 05:57:41;;;;;;;31.70;17.33;;;0.70;99.90;;;;;;5092736;28;20289;-79
2022/01/13 06:00:10;;;;;;;30.60;17.27;;;0.80;1.00;;;;;;5093139;28;20738;-80
2022/01/13 06:02:38;;;;;;;81.10;25.50;;;0.70;1.00;;;;;;5092344;28;20662;-72
2022/01/13 06:05:06;;;;;;;28.13;17.83;;;0.60;1.00;;;;;;5093212;28;20564;-80
2022/01/13 06:07:33;;;;;;;29.40;17.07;;;0.60;1.00;;;;;;5092689;28;20262;-78
2022/01/13 06:10:00;;;;;;;38.50;24.63;;;0.50;1.00;;;;;;5092816;28;20247;-70
2022/01/13 06:12:33;;;;;;;36.67;23.37;;;0.40;1.00;;;;;;5093249;28;20247;-81
2022/01/13 06:15:03;;;;;;;40.53;25.73;;;0.50;1.00;;;;;;5092961;28;20206;-76
2022/01/13 06:17:31;;;;;;;30.13;16.53;;;0.30;1.00;;;;;;5092576;28;20254;-81
2022/01/13 06:19:59;;;;;;;28.57;16.60;;;0.20;1.00;;;;;;5092996;28;20290;-76
2022/01/13 06:22:27;;;;;;;30.37;19.03;;;0.20;1.00;;;;;;5095275;27;20655;-70
2022/01/13 06:24:54;;;;;;;28.77;18.47;;;0.30;1.00;;;;;;5112119;28;20201;-73
2022/01/13 06:27:22;;;;;;;35.53;20.50;;;0.40;1.00;;;;;;5113370;28;20274;-75
2022/01/13 06:29:51;;;;;;;29.50;18.30;;;0.60;1.00;;;;;;5112468;28;20697;-80
2022/01/13 06:32:21;;;;;;;28.03;16.63;;;0.50;1.00;;;;;;5112643;27;20200;-77
2022/01/13 06:34:48;;;;;;;27.73;17.73;;;0.50;1.00;;;;;;5112392;28;20340;-78
2022/01/13 06:37:15;;;;;;;25.93;17.20;;;0.30;1.00;;;;;;5113120;28;20254;-77
2022/01/13 06:39:42;;;;;;;25.97;17.23;;;0.20;1.00;;;;;;5111085;28;20654;-72
2022/01/13 06:42:18;;;;;;;30.70;18.53;;;0.20;1.00;;;;;;5111897;28;20249;-75
2022/01/13 06:44:45;;;;;;;33.17;17.23;;;0.10;1.00;;;;;;5111975;28;20766;-74
2022/01/13 06:47:12;;;;;;;26.77;15.87;;;0.40;1.00;;;;;;5111947;28;20213;-73
2022/01/13 06:49:40;;;;;;;23.20;14.67;;;0.30;1.00;;;;;;5112145;28;20263;-74
2022/01/13 06:52:08;;;;;;;26.43;16.73;;;0.00;1.00;;;;;;5112090;28;20205;-75
2022/01/13 06:54:35;;;;;;;25.17;16.83;;;0.00;1.00;;;;;;5111627;28;20212;-74
2022/01/13 06:57:02;;;;;;;25.63;16.80;;;0.10;1.00;;;;;;5111253;28;20201;-76
2022/01/13 06:59:29;;;;;;;31.10;18.53;;;0.00;1.00;;;;;;5111854;28;20224;-71
2022/01/13 07:02:00;;;;;;;28.83;14.93;;;0.00;1.00;;;;;;5111587;28;20630;-74
2022/01/13 07:04:27;;;;;;;21.87;13.90;;;-0.10;1.00;;;;;;5112245;28;20239;-73
2022/01/13 07:06:56;;;;;;;23.60;14.27;;;-0.20;1.00;;;;;;5111688;28;20250;-73
2022/01/13 07:09:24;;;;;;;22.07;13.13;;;-0.50;1.00;;;;;;5110561;28;20205;-75
2022/01/13 07:11:51;;;;;;;23.50;14.90;;;-0.40;1.00;;;;;;5111909;28;20725;-76
2022/01/13 07:14:18;;;;;;;22.67;15.03;;;-0.40;1.00;;;;;;5111988;28;20664;-77
2022/01/13 07:16:46;;;;;;;22.27;14.23;;;-0.10;1.00;;;;;;5111668;28;20205;-77
2022/01/13 07:19:14;;;;;;;22.90;16.37;;;-0.10;1.00;;;;;;5112026;28;20232;-77
2022/01/13 07:21:41;;;;;;;23.33;13.77;;;-0.10;1.00;;;;;;5111492;28;20246;-77
2022/01/13 07:24:10;;;;;;;22.77;13.67;;;-0.20;1.00;;;;;;5111691;28;20656;-72
2022/01/13 07:26:37;;;;;;;20.80;13.33;;;0.20;1.00;;;;;;5108372;28;20208;-72
2022/01/13 07:29:05;;;;;;;22.53;14.37;;;0.30;1.00;;;;;;5108405;28;20258;-72
2022/01/13 07:31:32;;;;;;;22.20;14.73;;;0.10;1.00;;;;;;5111266;28;20217;-70
2022/01/13 07:33:59;;;;;;;27.30;16.57;;;0.00;1.00;;;;;;5090939;28;20205;-71
2022/01/13 07:36:26;;;;;;;25.03;14.80;;;0.10;1.00;;;;;;5095884;28;20208;-72
2022/01/13 07:38:53;;;;;;;23.50;16.50;;;0.00;1.00;;;;;;5110821;28;20228;-72
2022/01/13 07:41:22;;;;;;;23.20;14.40;;;0.10;1.00;;;;;;5111253;28;20262;-72
2022/01/13 07:43:53;;;;;;;24.63;15.47;;;0.10;1.00;;;;;;5111071;28;20197;-72
2022/01/13 07:46:21;;;;;;;24.27;14.13;;;0.10;1.00;;;;;;5111250;28;20199;-72
2022/01/13 07:48:48;;;;;;;25.53;15.63;;;0.20;1.00;;;;;;5111033;28;20292;-73
2022/01/13 07:51:15;;;;;;;21.57;13.90;;;0.10;1.00;;;;;;5112403;28;20254;-72
2022/01/13 07:53:43;;;;;;;25.83;14.47;;;0.20;1.00;;;;;;5110842;27;20212;-72
2022/01/13 07:56:10;;;;;;;27.20;15.37;;;0.30;1.00;;;;;;5110771;28;20246;-70
2022/01/13 07:58:40;;;;;;;24.00;14.17;;;0.30;1.00;;;;;;5110399;28;20695;-73
2022/01/13 08:01:08;;;;;;;23.77;15.87;;;0.20;1.00;;;;;;5110821;28;20216;-73
2022/01/13 08:03:35;;;;;;;22.27;14.70;;;0.20;1.00;;;;;;5108785;28;20554;-70
2022/01/13 08:06:04;;;;;;;23.67;14.80;;;0.30;1.00;;;;;;5110041;28;20671;-70
2022/01/13 08:08:32;;;;;;;23.57;15.70;;;0.30;1.00;;;;;;5110714;28;20231;-70
2022/01/13 08:10:59;;;;;;;27.50;16.00;;;0.40;1.00;;;;;;5110027;28;20250;-70
2022/01/13 08:13:27;;;;;;;30.00;14.30;;;0.40;1.00;;;;;;5111001;28;20227;-70
2022/01/13 08:15:55;;;;;;;24.20;16.63;;;0.60;1.00;;;;;;5110292;28;20744;-71
2022/01/13 08:21:06;;;;;;;27.53;14.97;;;0.80;1.00;;;;;;5110219;28;20212;-70
2022/01/13 08:23:33;;;;;;;23.70;15.60;;;0.80;1.00;;;;;;5110484;28;20257;-71
2022/01/13 08:26:00;;;;;;;21.73;14.20;;;0.90;1.00;;;;;;5110899;28;20261;-70
2022/01/13 08:28:28;;;;;;;23.87;14.70;;;0.90;1.00;;;;;;5110243;28;20197;-70
2022/01/13 08:30:57;;;;;;;23.20;14.10;;;0.80;1.00;;;;;;5110050;28;20208;-70
2022/01/13 08:33:24;;;;;;;26.33;14.87;;;0.80;1.00;;;;;;5110779;28;20200;-71
2022/01/13 08:35:52;;;;;;;28.33;16.07;;;1.10;1.00;;;;;;5110021;28;20270;-70
2022/01/13 08:38:20;;;;;;;24.27;15.27;;;0.80;1.00;;;;;;5110271;28;20224;-71
2022/01/13 08:40:49;;;;;;;26.53;15.90;;;0.70;1.00;;;;;;5112133;28;20211;-70
2022/01/13 08:43:16;;;;;;;28.53;15.87;;;0.80;1.00;;;;;;5109742;27;20201;-70
2022/01/13 08:45:43;;;;;;;28.37;16.70;;;1.00;1.00;;;;;;5108779;28;20741;-70
2022/01/13 08:48:12;;;;;;;21.80;14.40;;;1.00;1.00;;;;;;5114069;28;20668;-70
2022/01/13 08:50:39;;;;;;;22.57;13.73;;;1.10;1.00;;;;;;5113249;28;20733;-70
2022/01/13 08:53:06;;;;;;;28.53;14.57;;;1.00;1.00;;;;;;5114027;28;20356;-71
2022/01/13 08:55:33;;;;;;;25.80;15.03;;;1.00;1.00;;;;;;5113539;28;20266;-70
2022/01/13 08:58:01;;;;;;;30.73;14.97;;;1.10;1.00;;;;;;5118526;27;20200;-71
2022/01/13 09:00:28;;;;;;;24.67;15.73;;;1.10;1.00;;;;;;5109791;27;20228;-70
2022/01/13 09:02:55;;;;;;;24.93;15.43;;;1.30;1.00;;;;;;5111069;28;20687;-71
2022/01/13 09:05:23;;;;;;;27.67;15.37;;;1.20;1.00;;;;;;5112894;28;20204;-71
2022/01/13 09:07:50;;;;;;;23.87;17.17;;;1.30;1.00;;;;;;5113770;28;20212;-71
2022/01/13 09:10:17;;;;;;;25.50;15.63;;;1.50;1.00;;;;;;5106597;28;20205;-71
2022/01/13 09:12:45;;;;;;;24.10;16.40;;;1.60;1.00;;;;;;5111161;28;20245;-71
2022/01/13 09:15:19;;;;;;;27.00;16.43;;;1.50;1.00;;;;;;5113336;28;20209;-71
2022/01/13 09:17:51;;;;;;;30.63;16.93;;;1.40;1.00;;;;;;5110805;28;20294;-71
2022/01/13 09:20:18;;;;;;;29.90;18.33;;;1.30;1.00;;;;;;5111699;28;20224;-70
2022/01/13 09:22:47;;;;;;;30.23;17.33;;;1.20;1.00;;;;;;5113071;28;20202;-71
2022/01/13 09:25:14;;;;;;;33.87;18.17;;;1.10;1.00;;;;;;5099491;28;20659;-71
2022/01/13 09:27:42;;;;;;;27.47;16.57;;;1.10;1.00;;;;;;5112947;28;20205;-71
2022/01/13 09:30:11;;;;;;;33.60;20.17;;;1.20;1.00;;;;;;5113119;28;20660;-71
2022/01/13 09:32:39;;;;;;;32.47;17.83;;;1.20;1.00;;;;;;5105593;28;20249;-71
2022/01/13 09:35:08;;;;;;;36.90;18.60;;;1.20;1.00;;;;;;5113350;27;20266;-70
2022/01/13 09:37:36;;;;;;;27.20;17.10;;;1.10;1.00;;;;;;5111918;28;20201;-71
2022/01/13 09:40:07;;;;;;;29.53;17.00;;;1.10;1.00;;;;;;5112446;28;20233;-71
2022/01/13 09:42:36;;;;;;;28.17;16.30;;;1.10;1.00;;;;;;5112849;28;20671;-71
2022/01/13 09:45:04;;;;;;;26.63;15.37;;;1.30;1.00;;;;;;5111969;28;20205;-71
2022/01/13 09:47:31;;;;;;;28.77;16.77;;;1.50;1.00;;;;;;5111935;28;20197;-72
2022/01/13 09:50:00;;;;;;;26.07;15.20;;;1.60;1.00;;;;;;5113200;28;20216;-71
2022/01/13 09:52:28;;;;;;;28.03;17.83;;;1.50;1.00;;;;;;5113135;28;20673;-71
2022/01/13 09:54:55;;;;;;;34.23;17.57;;;1.40;1.00;;;;;;5110973;28;20217;-72
2022/01/13 09:57:24;;;;;;;25.23;16.33;;;1.60;1.00;;;;;;5112797;28;20204;-72
2022/01/13 09:59:51;;;;;;;23.83;15.70;;;1.50;1.00;;;;;;5109884;28;20604;-73
2022/01/13 10:02:18;;;;;;;30.80;17.13;;;1.80;1.00;;;;;;5113060;28;20209;-71
2022/01/13 10:04:47;;;;;;;33.13;17.77;;;1.50;1.00;;;;;;5112670;28;20204;-71
2022/01/13 10:07:18;;;;;;;30.93;16.77;;;1.50;1.00;;;;;;5112971;28;20215;-72
2022/01/13 10:09:56;;;;;;;30.10;19.40;;;1.80;1.00;;;;;;5112770;28;20211;-71
2022/01/13 10:12:33;;;;;;;31.43;19.83;;;1.80;1.00;;;;;;5112641;27;20733;-71
2022/01/13 10:17:46;;;;;;;34.97;18.17;;;1.90;1.00;;;;;;5066205;28;20299;-72
2022/01/13 10:20:16;;;;;;;40.07;20.53;;;1.80;1.00;;;;;;5111884;28;20232;-72
2022/01/13 10:22:43;;;;;;;33.97;22.60;;;2.10;1.00;;;;;;5112358;28;20204;-72
2022/01/13 10:25:30;;;;;;;35.43;21.40;;;2.30;1.00;;;;;;5110876;28;20200;-71
2022/01/13 10:28:16;;;;;;;28.63;17.80;;;2.20;1.00;;;;;;5111298;28;20205;-71
2022/01/13 10:30:45;;;;;;;34.43;19.50;;;1.90;1.00;;;;;;5111232;28;20204;-71
2022/01/13 10:33:17;;;;;;;28.30;17.33;;;2.10;1.00;;;;;;5112362;28;20296;-72
2022/01/13 10:35:45;;;;;;;30.03;19.10;;;2.20;1.00;;;;;;5102457;28;20249;-72
2022/01/13 10:38:16;;;;;;;37.30;19.33;;;2.00;1.00;;;;;;5112243;28;20554;-72
2022/01/13 10:40:45;;;;;;;32.17;20.30;;;2.00;1.00;;;;;;5098170;28;20791;-72
2022/01/13 10:43:15;;;;;;;27.77;17.83;;;2.00;1.00;;;;;;5112489;28;20197;-72
2022/01/13 10:45:50;;;;;;;31.97;16.83;;;2.10;1.00;;;;;;5097744;28;20261;-72
2022/01/13 10:48:19;;;;;;;29.10;18.33;;;2.60;1.00;;;;;;5109840;28;20201;-72
2022/01/13 10:50:50;;;;;;;34.73;18.83;;;2.70;1.00;;;;;;5111074;28;20664;-72
2022/01/13 10:53:19;;;;;;;33.40;18.73;;;2.70;1.00;;;;;;5112275;28;20200;-71
2022/01/13 10:55:49;;;;;;;34.63;20.03;;;2.70;1.00;;;;;;5110430;28;20209;-73
2022/01/13 10:58:20;;;;;;;28.23;16.17;;;2.50;1.00;;;;;;5112291;28;20660;-73
2022/01/13 11:00:50;;;;;;;28.17;16.47;;;2.60;1.00;;;;;;5111541;27;20236;-73
2022/01/13 11:03:19;;;;;;;28.03;16.87;;;2.80;1.00;;;;;;5111204;28;20201;-73
2022/01/13 11:05:49;;;;;;;31.97;17.53;;;2.80;1.00;;;;;;5111790;28;20197;-73
2022/01/13 11:08:30;;;;;;;36.93;19.70;;;2.60;1.00;;;;;;5112164;28;20201;-73
2022/01/13 11:10:58;;;;;;;31.07;18.37;;;2.30;1.00;;;;;;5109987;28;20691;-73
2022/01/13 11:13:29;;;;;;;32.00;18.70;;;2.50;1.00;;;;;;5108134;28;20278;-73
2022/01/13 11:15:57;;;;;;;31.07;17.70;;;2.70;1.00;;;;;;5111493;28;20724;-73
2022/01/13 11:18:26;;;;;;;32.07;19.83;;;2.70;1.00;;;;;;5111404;28;20205;-73
2022/01/13 11:20:53;;;;;;;30.90;18.80;;;2.40;1.00;;;;;;5110384;28;20285;-70
2022/01/13 11:23:21;;;;;;;32.77;17.70;;;2.70;1.00;;;;;;5110074;28;20270;-72
2022/01/13 11:25:50;;;;;;;28.13;18.17;;;3.00;1.00;;;;;;5108206;28;20264;-73
2022/01/13 11:28:17;;;;;;;29.70;18.87;;;3.00;1.00;;;;;;5111040;27;20277;-77
2022/01/13 11:30:47;;;;;;;27.30;17.63;;;2.80;1.00;;;;;;5107321;28;20205;-72
2022/01/13 11:33:14;;;;;;;31.07;19.27;;;2.80;1.00;;;;;;5110409;28;20232;-71
2022/01/13 11:35:48;;;;;;;32.03;18.90;;;2.40;1.00;;;;;;5111304;28;20579;-70
2022/01/13 11:38:18;;;;;;;33.83;18.97;;;2.40;1.00;;;;;;5111558;28;20760;-72
2022/01/13 11:40:47;;;;;;;31.50;18.80;;;2.60;1.00;;;;;;5109554;28;20325;-73
2022/01/13 11:43:27;;;;;;;30.97;17.77;;;2.50;1.00;;;;;;5109596;28;20635;-73
2022/01/13 11:45:57;;;;;;;29.37;18.37;;;2.30;1.00;;;;;;5110184;28;20216;-73
2022/01/13 11:48:29;;;;;;;32.70;18.43;;;2.70;1.00;;;;;;5111544;28;20227;-74
2022/01/13 11:51:16;;;;;;;31.27;18.00;;;2.60;1.00;;;;;;5111214;28;20208;-73
2022/01/13 11:53:59;;;;;;;34.67;19.53;;;2.70;1.00;;;;;;5110990;28;20291;-73
2022/01/13 11:56:27;;;;;;;29.63;17.27;;;2.60;1.00;;;;;;5110833;28;20215;-73
2022/01/13 11:58:57;;;;;;;32.97;19.50;;;2.90;1.00;;;;;;5110883;28;20216;-73
2022/01/13 12:01:27;;;;;;;31.63;18.17;;;2.80;1.00;;;;;;5111233;28;20232;-73
2022/01/13 12:03:56;;;;;;;31.43;17.23;;;2.70;1.00;;;;;;5111016;28;20208;-71
2022/01/13 12:06:38;;;;;;;33.00;19.53;;;2.70;1.00;;;;;;5110953;28;20200;-71
2022/01/13 12:09:07;;;;;;;29.67;18.10;;;2.90;1.00;;;;;;5105080;28;20261;-71
2022/01/13 12:11:46;;;;;;;30.60;17.27;;;2.80;1.00;;;;;;5110689;28;20641;-71
2022/01/13 12:14:35;;;;;;;35.43;18.70;;;2.80;1.00;;;;;;5112605;28;20197;-72
2022/01/13 12:17:08;;;;;;;30.90;17.57;;;2.80;1.00;;;;;;5109277;28;20219;-71
2022/01/13 12:19:39;;;;;;;27.80;16.83;;;2.70;1.00;;;;;;5114992;28;20232;-71
2022/01/13 12:22:10;;;;;;;30.20;16.30;;;2.90;1.00;;;;;;5115249;27;20632;-71
2022/01/13 12:24:45;;;;;;;31.27;18.50;;;2.80;1.00;;;;;;5115043;28;20289;-73
2022/01/13 12:27:13;;;;;;;30.20;16.77;;;2.40;1.00;;;;;;5115070;28;20249;-71
2022/01/13 12:29:45;;;;;;;24.80;16.17;;;2.50;1.00;;;;;;5114836;28;20250;-71
2022/01/13 12:32:17;;;;;;;23.17;15.17;;;2.40;1.00;;;;;;5115287;28;20205;-71
2022/01/13 12:34:50;;;;;;;24.37;15.43;;;2.30;1.00;;;;;;5114072;28;20254;-71
2022/01/13 12:37:28;;;;;;;28.97;17.83;;;2.80;1.00;;;;;;5114197;28;20258;-71
2022/01/13 12:40:15;;;;;;;26.30;16.03;;;2.40;1.00;;;;;;5114571;28;20592;-72
2022/01/13 12:42:50;;;;;;;27.30;16.90;;;3.00;1.00;;;;;;5114289;27;20254;-71
2022/01/13 12:45:32;;;;;;;46.43;20.00;;;3.20;1.00;;;;;;5114957;28;20253;-71
2022/01/13 12:48:04;;;;;;;33.00;18.67;;;3.10;1.00;;;;;;5113035;28;20207;-71
2022/01/13 12:50:34;;;;;;;27.17;16.93;;;2.60;1.00;;;;;;5114429;28;20265;-73
2022/01/13 12:53:09;;;;;;;27.23;16.43;;;2.70;1.00;;;;;;5114116;28;20209;-75
2022/01/13 12:55:38;;;;;;;27.17;15.93;;;2.40;1.00;;;;;;5112926;28;20208;-75
2022/01/13 12:58:06;;;;;;;31.80;17.77;;;2.50;1.00;;;;;;5112966;28;20259;-73
2022/01/13 13:00:34;;;;;;;30.47;18.60;;;2.80;1.00;;;;;;5092074;28;20229;-72
2022/01/13 13:03:07;;;;;;;26.63;16.50;;;2.80;1.00;;;;;;5093093;28;20621;-71
2022/01/13 13:05:40;;;;;;;30.20;16.53;;;2.90;1.00;;;;;;5098791;28;20201;-72
2022/01/13 13:08:09;;;;;;;26.40;17.30;;;3.10;1.00;;;;;;5110684;28;20205;-71
2022/01/13 13:10:36;;;;;;;29.47;18.10;;;3.50;1.00;;;;;;5091879;28;20261;-72
2022/01/13 13:13:04;;;;;;;30.40;18.83;;;3.00;1.00;;;;;;5092050;28;20210;-73
2022/01/13 13:15:40;;;;;;;26.17;16.57;;;2.60;1.00;;;;;;5093805;28;20255;-71
2022/01/13 13:18:09;;;;;;;27.73;17.33;;;2.70;1.00;;;;;;5093764;28;20204;-72
2022/01/13 13:20:38;;;;;;;31.30;16.43;;;2.70;1.00;;;;;;5093338;28;20233;-72
2022/01/13 13:23:06;;;;;;;28.07;17.77;;;2.70;1.00;;;;;;5093579;28;20205;-72
2022/01/13 13:25:36;;;;;;;39.03;18.40;;;2.90;1.00;;;;;;5092407;28;20696;-72